Time;durP1;ratioP1;P1;durP2;ratioP2;P2;SDS_P1;SDS_P2;PMS_P1;PMS_P2;Temp;Humidity;BMP_temperature;BMP_pressure;BME280_temperature;BME280_humidity;BME280_pressure;Samples;Min_cycle;Max_cycle;Signal;HPM_P1;HPM_P2
2022/01/03 00:01:40;;;;;;;1.45;0.57;;;;;;;15.83;66.48;100384.50;21070708;28;20048;-71
2022/01/03 00:11:42;;;;;;;2.53;0.77;;;;;;;15.80;66.46;100389.16;21070583;28;20056;-72
2022/01/03 00:21:45;;;;;;;2.45;0.77;;;;;;;15.76;66.56;100403.81;21080152;28;20058;-71
2022/01/03 00:31:47;;;;;;;1.23;0.60;;;;;;;15.69;66.57;100402.66;21084862;28;20121;-71
2022/01/03 00:41:49;;;;;;;1.48;0.70;;;;;;;15.61;66.13;100402.47;21084152;28;20050;-71
2022/01/03 00:51:51;;;;;;;3.08;0.82;;;;;;;15.62;66.35;100414.91;21065249;28;20066;-71
2022/01/03 01:01:54;;;;;;;1.38;0.60;;;;;;;15.11;66.56;100328.09;21064996;28;20048;-71
2022/01/03 01:11:59;;;;;;;3.33;0.82;;;;;;;15.44;66.43;100415.50;21063765;28;20113;-72
2022/01/03 01:22:10;;;;;;;4.20;1.55;;;;;;;15.51;66.35;100435.47;21048018;28;20083;-71
2022/01/03 01:32:14;;;;;;;2.10;0.70;;;;;;;15.49;66.40;100436.59;21079957;28;20044;-71
2022/01/03 01:42:18;;;;;;;3.67;0.90;;;;;;;15.07;66.33;100363.22;21080602;28;20040;-71
2022/01/03 01:52:23;;;;;;;3.65;1.13;;;;;;;15.34;66.85;100415.47;21044740;28;20071;-71
2022/01/03 02:02:44;;;;;;;3.63;0.98;;;;;;;14.47;66.66;100282.47;21093593;28;20106;-72
2022/01/03 02:12:48;;;;;;;;;;;;;;;15.39;66.35;100455.28;21059235;28;20468;-71
2022/01/03 02:22:56;;;;;;;3.22;0.85;;;;;;;15.12;66.38;100397.69;21058425;28;19923;-71
2022/01/03 02:33:04;;;;;;;3.35;0.70;;;;;;;14.63;66.80;100344.53;21041317;28;20082;-71
2022/01/03 02:43:06;;;;;;;4.75;1.50;;;;;;;15.00;66.50;100412.97;21039495;28;20070;-72
2022/01/03 02:53:09;;;;;;;4.72;1.60;;;;;;;14.32;66.63;100304.22;21039446;28;20043;-71
2022/01/03 03:03:13;;;;;;;4.65;1.20;;;;;;;15.18;66.39;100461.50;21080139;28;20048;-71
2022/01/03 03:13:15;;;;;;;7.53;1.63;;;;;;;15.22;66.71;100460.25;21072826;28;20043;-72
2022/01/03 03:23:18;;;;;;;6.05;1.38;;;;;;;14.73;66.51;100376.78;21072524;28;20059;-71
2022/01/03 03:33:22;;;;;;;3.30;1.00;;;;;;;14.72;66.53;100382.28;21053730;28;20094;-73
2022/01/03 03:43:32;;;;;;;5.05;1.10;;;;;;;15.07;66.56;100437.44;21071548;28;20052;-72
2022/01/03 03:53:37;;;;;;;4.32;1.58;;;;;;;15.11;66.71;100446.06;21058607;28;20507;-72
2022/01/03 04:03:39;;;;;;;4.30;1.23;;;;;;;14.73;66.14;100384.81;21102785;28;20126;-71
2022/01/03 04:13:42;;;;;;;5.18;1.45;;;;;;;15.15;66.30;100445.69;21102218;28;20164;-72
2022/01/03 04:23:44;;;;;;;4.50;1.48;;;;;;;14.78;66.22;100381.75;21101988;28;20047;-71
2022/01/03 04:33:46;;;;;;;7.50;1.70;;;;;;;14.72;66.12;100361.66;21050698;28;20078;-72
2022/01/03 04:43:48;;;;;;;5.63;1.65;;;;;;;15.07;65.94;100427.56;21085901;28;20048;-71
2022/01/03 04:53:51;;;;;;;5.05;1.73;;;;;;;14.85;66.33;100353.47;21083799;28;20143;-74
2022/01/03 05:03:53;;;;;;;4.95;1.25;;;;;;;15.54;66.01;100444.25;21063913;28;20044;-76
2022/01/03 05:13:55;;;;;;;6.28;1.50;;;;;;;15.55;65.60;100413.75;21082163;28;20048;-73
2022/01/03 05:23:57;;;;;;;6.05;1.75;;;;;;;15.75;65.41;100441.53;21081187;28;20056;-72
2022/01/03 05:34:00;;;;;;;4.78;1.60;;;;;;;15.75;65.39;100439.69;21062496;28;20070;-73
2022/01/03 05:44:02;;;;;;;6.45;1.58;;;;;;;15.41;65.54;100366.66;21061174;28;20054;-71
2022/01/03 05:54:05;;;;;;;3.92;1.50;;;;;;;15.48;65.35;100336.50;21060521;28;20048;-71
2022/01/03 06:04:15;;;;;;;6.63;2.10;;;;;;;16.45;65.52;100448.91;21043081;28;20527;-73
2022/01/03 06:14:18;;;;;;;6.20;1.75;;;;;;;16.75;65.41;100417.53;21043270;28;20496;-72
2022/01/03 06:24:21;;;;;;;5.87;2.03;;;;;;;16.89;64.69;100411.75;21042294;28;20485;-72
2022/01/03 06:34:26;;;;;;;8.40;2.00;;;;;;;16.87;64.78;100376.09;21041265;28;20094;-73
2022/01/03 06:44:29;;;;;;;6.30;2.00;;;;;;;16.65;64.98;100331.53;21056818;28;20052;-72
2022/01/03 06:54:33;;;;;;;6.72;1.92;;;;;;;17.20;64.55;100400.84;21055966;28;20110;-71
2022/01/03 07:04:37;;;;;;;7.40;2.03;;;;;;;16.84;64.63;100333.38;21055584;28;20056;-71
2022/01/03 07:24:41;;;;;;;11.50;1.90;;;;;;;16.85;64.63;100327.00;21072549;28;20052;-72
2022/01/03 07:34:43;;;;;;;9.15;1.90;;;;;;;16.88;64.89;100334.78;21071390;28;20105;-71
2022/01/03 07:44:45;;;;;;;6.00;1.92;;;;;;;17.39;64.97;100407.19;21053446;28;20484;-72
2022/01/03 07:54:46;;;;;;;8.27;2.08;;;;;;;17.46;65.18;100429.00;21070965;28;20052;-72
2022/01/03 08:04:48;;;;;;;5.78;1.88;;;;;;;17.05;65.10;100352.03;21052621;28;20059;-72
2022/01/03 08:14:50;;;;;;;7.90;1.90;;;;;;;17.47;65.21;100418.06;21070437;28;20416;-73
2022/01/03 08:24:52;;;;;;;9.82;2.55;;;;;;;17.60;65.07;100446.50;21069943;28;20044;-71
2022/01/03 08:34:54;;;;;;;6.55;1.83;;;;;;;17.60;65.11;100430.34;21068378;28;20049;-71
2022/01/03 08:44:56;;;;;;;5.57;1.77;;;;;;;17.59;64.60;100440.28;21080768;28;20423;-72
2022/01/03 08:54:58;;;;;;;6.22;2.08;;;;;;;17.22;64.56;100363.88;21065483;28;20040;-72
2022/01/03 09:05:00;;;;;;;7.75;2.10;;;;;;;17.67;64.20;100439.53;21064803;28;20119;-71
2022/01/03 09:15:03;;;;;;;5.80;1.98;;;;;;;17.45;63.93;100394.97;21081748;28;20113;-72
2022/01/03 09:35:07;;;;;;;7.45;1.88;;;;;;;17.28;63.81;100354.38;21080284;28;20051;-72
2022/01/03 09:45:13;;;;;;;7.63;1.92;;;;;;;17.66;63.71;100408.22;21079812;28;20098;-72
2022/01/03 09:55:16;;;;;;;5.40;1.75;;;;;;;17.63;63.45;100404.00;21043790;28;20575;-72
2022/01/03 10:05:19;;;;;;;7.55;2.08;;;;;;;17.35;63.14;100335.84;21077510;28;20052;-71
2022/01/03 10:15:21;;;;;;;5.85;1.83;;;;;;;17.78;63.15;100408.91;21059047;28;20094;-72
2022/01/03 10:25:26;;;;;;;6.07;2.40;;;;;;;17.13;63.00;100305.56;21076147;28;20048;-71
2022/01/03 10:35:28;;;;;;;;;;;;;;;17.80;62.48;100421.25;21075956;28;20488;-71
2022/01/03 10:45:34;;;;;;;5.80;2.38;;;;;;;17.66;62.75;100392.94;21056844;28;19974;-70
2022/01/03 10:55:36;;;;;;;6.13;1.90;;;;;;;17.80;62.57;100405.09;21056288;28;20051;-72
2022/01/03 11:05:40;;;;;;;5.53;2.25;;;;;;;17.30;62.61;100305.84;21072638;28;20048;-71
2022/01/03 11:15:53;;;;;;;6.70;2.38;;;;;;;17.82;62.53;100384.25;21072894;28;20484;-72
2022/01/03 11:25:55;;;;;;;6.93;2.40;;;;;;;17.44;62.78;100296.41;21072279;28;20139;-71
2022/01/03 11:35:58;;;;;;;6.10;1.58;;;;;;;17.47;62.96;100286.22;21076118;28;20056;-71
2022/01/03 11:46:01;;;;;;;5.88;1.80;;;;;;;17.83;63.30;100334.78;21071742;28;20055;-71
2022/01/03 11:56:05;;;;;;;8.38;2.33;;;;;;;17.87;63.32;100343.38;21053863;28;20090;-72
2022/01/03 12:06:09;;;;;;;7.67;2.53;;;;;;;17.77;63.19;100289.59;21070625;28;20571;-71
2022/01/03 12:16:12;;;;;;;6.60;2.10;;;;;;;17.77;63.29;100286.91;21060295;28;20059;-71
2022/01/03 12:26:19;;;;;;;9.45;2.40;;;;;;;17.04;63.01;100145.97;21085868;28;20075;-71
2022/01/03 12:36:21;;;;;;;6.78;2.00;;;;;;;17.91;63.03;100292.78;21067445;28;20048;-73
2022/01/03 12:46:23;;;;;;;6.50;2.28;;;;;;;17.70;62.87;100237.38;21084396;28;20483;-71
2022/01/03 12:56:28;;;;;;;7.97;2.23;;;;;;;17.42;62.65;100180.88;21099567;28;20082;-71
2022/01/03 13:06:32;;;;;;;8.40;2.22;;;;;;;17.48;62.41;100180.25;21064703;28;20060;-70
2022/01/03 13:16:39;;;;;;;7.95;2.15;;;;;;;17.63;61.73;100163.56;21081921;28;20044;-70
2022/01/03 13:27:03;;;;;;;6.78;2.50;;;;;;;18.01;61.86;100238.91;21080380;28;20059;-71
2022/01/03 13:37:08;;;;;;;7.28;2.42;;;;;;;17.48;61.86;100134.50;21080357;28;20056;-71
2022/01/03 13:57:35;;;;;;;6.75;1.73;;;;;;;17.43;62.03;100125.19;21063402;28;20060;-72
2022/01/03 14:07:50;;;;;;;7.67;2.77;;;;;;;17.39;61.97;100121.97;21077692;28;20498;-71
2022/01/03 14:17:54;;;;;;;7.10;1.80;;;;;;;17.86;61.99;100190.06;21077230;28;20048;-71
2022/01/03 14:28:02;;;;;;;6.90;2.00;;;;;;;17.45;62.07;100120.50;21076139;28;20101;-72
2022/01/03 14:38:09;;;;;;;6.50;2.40;;;;;;;17.13;62.08;100036.63;21075603;28;20101;-71
2022/01/03 14:48:15;;;;;;;7.97;2.33;;;;;;;17.01;61.86;100009.09;21076093;28;20393;-72
2022/01/03 14:58:21;;;;;;;8.20;2.40;;;;;;;17.88;61.97;100131.53;21075448;28;20071;-71
2022/01/03 15:08:23;;;;;;;7.25;2.20;;;;;;;17.83;61.35;100134.66;21073493;28;20040;-71
2022/01/03 15:18:25;;;;;;;6.90;2.08;;;;;;;17.88;61.57;100123.44;21073248;28;20040;-71
2022/01/03 15:28:28;;;;;;;7.00;2.25;;;;;;;17.88;61.50;100124.28;21054423;28;20055;-75
2022/01/03 15:38:30;;;;;;;8.10;2.33;;;;;;;17.89;61.57;100112.50;21071703;28;20055;-72
2022/01/03 15:48:32;;;;;;;6.43;2.22;;;;;;;17.80;61.80;100103.53;21057450;28;20093;-71
2022/01/03 15:58:34;;;;;;;7.78;2.45;;;;;;;17.56;61.56;100054.84;21088513;28;20131;-72
2022/01/03 16:08:35;;;;;;;6.68;2.17;;;;;;;17.53;61.54;100037.19;21087367;28;20074;-71
2022/01/03 16:18:38;;;;;;;8.38;1.88;;;;;;;17.35;61.55;99991.47;21068440;28;20060;-71
2022/01/03 16:28:40;;;;;;;6.18;2.03;;;;;;;17.66;61.28;100031.38;21085690;28;20032;-71
2022/01/03 16:38:42;;;;;;;7.03;1.88;;;;;;;17.92;61.27;100068.28;21085074;28;20044;-71
2022/01/03 16:48:44;;;;;;;7.55;2.08;;;;;;;17.91;61.16;100072.81;21084313;28;20047;-71
2022/01/03 16:58:46;;;;;;;5.45;1.50;;;;;;;17.82;61.25;100063.84;21082480;28;20052;-73
2022/01/03 17:08:48;;;;;;;7.35;1.65;;;;;;;17.76;61.46;100052.84;21082716;28;20056;-70
2022/01/03 17:18:50;;;;;;;7.25;2.28;;;;;;;17.27;61.55;99972.56;21081808;28;20485;-70
2022/01/03 17:28:52;;;;;;;6.78;1.88;;;;;;;17.20;61.40;99966.94;21063250;28;20052;-71
2022/01/03 17:38:54;;;;;;;7.13;1.90;;;;;;;17.58;61.67;100010.66;21080318;28;20435;-71
2022/01/03 17:48:56;;;;;;;4.47;1.30;;;;;;;17.23;61.45;99951.34;21061319;28;20044;-71
2022/01/03 17:58:58;;;;;;;4.53;1.80;;;;;;;17.15;61.13;99927.06;21078897;28;20046;-71
2022/01/03 18:09:01;;;;;;;5.00;1.70;;;;;;;17.57;61.20;100005.41;21077865;28;20099;-72
2022/01/03 18:19:02;;;;;;;4.47;1.40;;;;;;;17.56;61.08;99987.56;21076766;28;20044;-71
2022/01/03 18:29:04;;;;;;;5.15;1.55;;;;;;;17.61;60.96;100013.03;21041633;28;20056;-71
2022/01/03 18:39:07;;;;;;;4.75;1.55;;;;;;;17.61;60.89;99996.88;21075445;28;20110;-71
2022/01/03 18:49:09;;;;;;;4.85;1.38;;;;;;;17.61;60.76;99998.72;21056978;28;20491;-71
2022/01/03 18:59:11;;;;;;;4.07;1.60;;;;;;;17.43;60.63;99953.84;21074061;28;20515;-72
2022/01/03 19:09:13;;;;;;;4.93;1.45;;;;;;;17.57;60.83;99948.88;21055361;28;20131;-71
2022/01/03 19:19:15;;;;;;;3.72;1.20;;;;;;;17.60;60.59;99949.44;21073331;28;20044;-71
2022/01/03 19:29:17;;;;;;;4.22;1.35;;;;;;;17.21;60.62;99888.78;21071556;28;20048;-71
2022/01/03 19:39:19;;;;;;;3.90;0.95;;;;;;;17.18;60.65;99880.19;21072635;28;20047;-71
2022/01/03 19:49:21;;;;;;;3.22;1.17;;;;;;;17.54;60.73;99929.38;21053602;28;20044;-71
2022/01/03 19:59:24;;;;;;;4.25;1.45;;;;;;;17.19;60.46;99858.50;21053403;28;20135;-71
2022/01/03 20:09:26;;;;;;;4.55;1.40;;;;;;;17.27;60.26;99870.34;21071202;28;20060;-71
2022/01/03 20:19:28;;;;;;;4.18;1.10;;;;;;;17.61;60.34;99912.59;21070490;28;20051;-71
2022/01/03 20:29:30;;;;;;;4.95;1.35;;;;;;;17.59;60.27;99926.22;21051907;28;20144;-71
2022/01/03 20:39:32;;;;;;;4.30;1.30;;;;;;;17.51;60.27;99904.63;21081189;28;20052;-71
2022/01/03 20:49:34;;;;;;;4.78;1.10;;;;;;;17.41;60.55;99902.03;21084541;28;20105;-71
2022/01/03 20:59:37;;;;;;;5.20;1.40;;;;;;;17.29;60.37;99890.69;21083501;28;20496;-71
2022/01/03 21:09:39;;;;;;;4.40;1.50;;;;;;;16.80;60.52;99800.56;21082489;28;20074;-71
2022/01/03 21:19:41;;;;;;;3.75;1.38;;;;;;;17.21;60.71;99874.50;21081916;28;20117;-72
2022/01/03 21:29:42;;;;;;;3.85;1.10;;;;;;;16.67;60.70;99789.38;21082094;28;20277;-71
2022/01/03 21:39:44;;;;;;;3.28;0.88;;;;;;;16.45;60.92;99742.34;21062443;28;20052;-71
2022/01/03 21:49:46;;;;;;;3.17;1.27;;;;;;;16.83;60.87;99820.91;21060984;28;20048;-72
2022/01/03 21:59:48;;;;;;;5.32;1.20;;;;;;;16.80;60.88;99823.91;21078734;28;20484;-71
2022/01/03 22:09:50;;;;;;;5.15;1.30;;;;;;;16.35;61.10;99743.28;21077952;28;20048;-71
2022/01/03 22:19:52;;;;;;;3.78;1.20;;;;;;;16.76;61.12;99804.56;21077191;28;20055;-71
2022/01/03 22:29:53;;;;;;;5.47;1.13;;;;;;;16.25;61.04;99715.63;21076422;28;20097;-71
2022/01/03 22:39:55;;;;;;;5.05;1.42;;;;;;;16.28;61.04;99723.38;21075558;28;20771;-72
2022/01/03 22:49:57;;;;;;;4.18;1.50;;;;;;;16.61;61.35;99774.69;21075571;28;20043;-71
2022/01/03 22:59:58;;;;;;;4.32;1.60;;;;;;;16.59;61.23;99760.56;21073253;28;20040;-70
2022/01/03 23:10:00;;;;;;;2.67;1.02;;;;;;;16.06;61.41;99662.94;21073723;28;20052;-71
2022/01/03 23:20:04;;;;;;;3.03;1.10;;;;;;;16.23;61.16;99690.78;21072887;28;20046;-72
2022/01/03 23:30:07;;;;;;;5.47;1.80;;;;;;;16.10;61.14;99653.56;21072494;28;20048;-73
2022/01/03 23:40:11;;;;;;;3.75;1.30;;;;;;;16.58;61.16;99732.03;21054203;28;20101;-71
2022/01/03 23:50:14;;;;;;;4.13;1.35;;;;;;;16.59;61.20;99704.16;21071432;28;20044;-71
